KCHS

Charleston AFB / Intl Airport

Charleston, South Carolina, USA
METAR KCHS 180156Z 24009KT 10SM FEW020 SCT090 SCT110 28/25 A3016 RMK AO2 LTG DSNT N AND NW SLP211 CB DSNT N AND NW T02780250
Observed Flight Rules
Aug-18 @ 01:56 UTC (34 minutes ago) Visual Flight Rules
Wind Visibility Clouds
240° at 9 knots 10 miles
  • Few at 2,000' AGL
  • Scattered at 9,000' AGL
  • Scattered at 11,000' AGL
Temperatures Readings
Current 28°C / 82°F
Dewpoint 25°C / 77°F
Humidity 84%
Altimeter 30.16" Hg
Pressure 1021.1 hPa
Elevation 13
METAR KCHS 180156Z 24009KT 10SM FEW020 SCT090 SCT110 28/25 A3016 RMK AO2 LTG DSNT N AND NW SLP211 CB DSNT N AND NW T02780250
Observed Flight Rules
Aug-18 @ 01:56 UTC
(34 minutes ago)
VFR
Wind Visibility
240° at 9 knots 10 miles
Clouds
  • Few at 2,000' AGL
  • Scattered at 9,000' AGL
  • Scattered at 11,000' AGL
Temperature Dewpoint
28°C / 82°F 25°C / 77°F
Humidity Altimeter Pressure
84% 30.16" Hg 1021.1 hPa